sensor_id;sensor_type;location;lat;lon;timestamp;temperature;humidity
9410;DHT22;4744;52.576;13.568;2024-03-08T00:01:21;-0.70;90.80
9410;DHT22;4744;52.576;13.568;2024-03-08T00:03:48;-0.70;90.90
9410;DHT22;4744;52.576;13.568;2024-03-08T00:06:17;-0.70;90.60
9410;DHT22;4744;52.576;13.568;2024-03-08T00:08:45;-0.70;90.70
9410;DHT22;4744;52.576;13.568;2024-03-08T00:11:12;-0.70;90.90
9410;DHT22;4744;52.576;13.568;2024-03-08T00:13:39;-0.70;90.70
9410;DHT22;4744;52.576;13.568;2024-03-08T00:16:07;-0.70;90.90
9410;DHT22;4744;52.576;13.568;2024-03-08T00:18:34;-0.70;90.80
9410;DHT22;4744;52.576;13.568;2024-03-08T00:21:02;-0.70;90.90
9410;DHT22;4744;52.576;13.568;2024-03-08T00:23:30;-0.80;90.60
9410;DHT22;4744;52.576;13.568;2024-03-08T00:26:00;-0.90;90.50
9410;DHT22;4744;52.576;13.568;2024-03-08T00:28:29;-0.90;91.00
9410;DHT22;4744;52.576;13.568;2024-03-08T00:30:56;-1.00;91.00
9410;DHT22;4744;52.576;13.568;2024-03-08T00:33:26;-1.10;91.50
9410;DHT22;4744;52.576;13.568;2024-03-08T00:35:53;-1.10;92.00
9410;DHT22;4744;52.576;13.568;2024-03-08T00:38:20;-1.10;92.20
9410;DHT22;4744;52.576;13.568;2024-03-08T00:40:47;-1.10;92.30
9410;DHT22;4744;52.576;13.568;2024-03-08T00:43:15;-1.10;92.30
9410;DHT22;4744;52.576;13.568;2024-03-08T00:45:42;-1.10;92.50
9410;DHT22;4744;52.576;13.568;2024-03-08T00:48:09;-1.10;92.30
9410;DHT22;4744;52.576;13.568;2024-03-08T00:50:36;-1.00;92.60
9410;DHT22;4744;52.576;13.568;2024-03-08T00:53:03;-1.00;92.20
9410;DHT22;4744;52.576;13.568;2024-03-08T00:55:31;-1.00;92.30
9410;DHT22;4744;52.576;13.568;2024-03-08T00:57:58;-1.00;92.10
9410;DHT22;4744;52.576;13.568;2024-03-08T01:00:27;-1.00;91.90
9410;DHT22;4744;52.576;13.568;2024-03-08T01:02:54;-1.10;92.00
9410;DHT22;4744;52.576;13.568;2024-03-08T01:05:21;-1.10;92.00
9410;DHT22;4744;52.576;13.568;2024-03-08T01:07:49;-1.10;92.20
9410;DHT22;4744;52.576;13.568;2024-03-08T01:10:17;-1.00;92.60
9410;DHT22;4744;52.576;13.568;2024-03-08T01:12:44;-1.00;92.60
9410;DHT22;4744;52.576;13.568;2024-03-08T01:15:11;-1.10;92.70
9410;DHT22;4744;52.576;13.568;2024-03-08T01:17:39;-1.10;92.50
9410;DHT22;4744;52.576;13.568;2024-03-08T01:20:07;-1.10;92.50
9410;DHT22;4744;52.576;13.568;2024-03-08T01:22:36;-1.10;92.40
9410;DHT22;4744;52.576;13.568;2024-03-08T01:25:04;-1.10;93.00
9410;DHT22;4744;52.576;13.568;2024-03-08T01:27:31;-1.10;92.90
9410;DHT22;4744;52.576;13.568;2024-03-08T01:29:58;-1.10;92.80
9410;DHT22;4744;52.576;13.568;2024-03-08T01:32:26;-1.10;92.60
9410;DHT22;4744;52.576;13.568;2024-03-08T01:34:54;-1.20;92.70
9410;DHT22;4744;52.576;13.568;2024-03-08T01:37:21;-1.30;92.80
9410;DHT22;4744;52.576;13.568;2024-03-08T01:39:48;-1.40;93.00
9410;DHT22;4744;52.576;13.568;2024-03-08T01:42:15;-1.40;93.10
9410;DHT22;4744;52.576;13.568;2024-03-08T01:44:43;-1.40;93.30
9410;DHT22;4744;52.576;13.568;2024-03-08T01:47:10;-1.50;93.60
9410;DHT22;4744;52.576;13.568;2024-03-08T01:49:38;-1.50;93.80
9410;DHT22;4744;52.576;13.568;2024-03-08T01:52:07;-1.60;94.00
9410;DHT22;4744;52.576;13.568;2024-03-08T01:54:34;-1.60;94.20
9410;DHT22;4744;52.576;13.568;2024-03-08T01:57:02;-1.60;94.30
9410;DHT22;4744;52.576;13.568;2024-03-08T01:59:30;-1.60;94.40
9410;DHT22;4744;52.576;13.568;2024-03-08T02:02:01;-1.60;94.60
9410;DHT22;4744;52.576;13.568;2024-03-08T02:04:29;-1.70;94.60
9410;DHT22;4744;52.576;13.568;2024-03-08T02:06:57;-1.70;94.70
9410;DHT22;4744;52.576;13.568;2024-03-08T02:09:26;-1.80;95.10
9410;DHT22;4744;52.576;13.568;2024-03-08T02:11:52;-1.80;95.50
9410;DHT22;4744;52.576;13.568;2024-03-08T02:14:20;-1.80;95.80
9410;DHT22;4744;52.576;13.568;2024-03-08T02:16:47;-1.80;96.10
9410;DHT22;4744;52.576;13.568;2024-03-08T02:19:14;-1.80;95.90
9410;DHT22;4744;52.576;13.568;2024-03-08T02:21:42;-1.90;95.60
9410;DHT22;4744;52.576;13.568;2024-03-08T02:24:12;-1.90;96.70
9410;DHT22;4744;52.576;13.568;2024-03-08T02:26:39;-1.90;97.00
9410;DHT22;4744;52.576;13.568;2024-03-08T02:29:09;-1.90;97.30
9410;DHT22;4744;52.576;13.568;2024-03-08T02:31:36;-1.90;97.50
9410;DHT22;4744;52.576;13.568;2024-03-08T02:34:04;-1.90;97.50
9410;DHT22;4744;52.576;13.568;2024-03-08T02:36:31;-1.90;97.40
9410;DHT22;4744;52.576;13.568;2024-03-08T02:39:03;-1.90;96.80
9410;DHT22;4744;52.576;13.568;2024-03-08T02:41:30;-1.90;96.70
9410;DHT22;4744;52.576;13.568;2024-03-08T02:43:57;-2.00;96.90
9410;DHT22;4744;52.576;13.568;2024-03-08T02:46:25;-2.10;97.10
9410;DHT22;4744;52.576;13.568;2024-03-08T02:48:52;-2.10;97.20
9410;DHT22;4744;52.576;13.568;2024-03-08T02:51:19;-2.10;97.40
9410;DHT22;4744;52.576;13.568;2024-03-08T02:53:46;-2.10;98.10
9410;DHT22;4744;52.576;13.568;2024-03-08T02:56:16;-2.10;98.60
9410;DHT22;4744;52.576;13.568;2024-03-08T02:58:43;-2.10;98.30
9410;DHT22;4744;52.576;13.568;2024-03-08T03:01:14;-2.10;97.70
9410;DHT22;4744;52.576;13.568;2024-03-08T03:03:41;-2.10;97.80
9410;DHT22;4744;52.576;13.568;2024-03-08T03:06:08;-2.10;98.10
9410;DHT22;4744;52.576;13.568;2024-03-08T03:08:35;-2.20;98.60
9410;DHT22;4744;52.576;13.568;2024-03-08T03:11:02;-2.20;98.60
9410;DHT22;4744;52.576;13.568;2024-03-08T03:13:30;-2.20;98.60
9410;DHT22;4744;52.576;13.568;2024-03-08T03:15:57;-2.20;98.30
9410;DHT22;4744;52.576;13.568;2024-03-08T03:18:23;-2.20;98.50
9410;DHT22;4744;52.576;13.568;2024-03-08T03:20:52;-2.30;98.60
9410;DHT22;4744;52.576;13.568;2024-03-08T03:23:19;-2.20;98.70
9410;DHT22;4744;52.576;13.568;2024-03-08T03:25:47;-2.30;98.80
9410;DHT22;4744;52.576;13.568;2024-03-08T03:28:14;-2.30;98.80
9410;DHT22;4744;52.576;13.568;2024-03-08T03:30:45;-2.20;99.20
9410;DHT22;4744;52.576;13.568;2024-03-08T03:33:12;-2.20;99.30
9410;DHT22;4744;52.576;13.568;2024-03-08T03:35:40;-2.20;99.30
9410;DHT22;4744;52.576;13.568;2024-03-08T03:38:08;-2.20;99.30
9410;DHT22;4744;52.576;13.568;2024-03-08T03:40:36;-2.20;99.60
9410;DHT22;4744;52.576;13.568;2024-03-08T03:43:03;-2.20;99.60
9410;DHT22;4744;52.576;13.568;2024-03-08T03:45:31;-2.20;99.50
9410;DHT22;4744;52.576;13.568;2024-03-08T03:48:02;-2.20;99.60
9410;DHT22;4744;52.576;13.568;2024-03-08T03:50:29;-2.20;99.70
9410;DHT22;4744;52.576;13.568;2024-03-08T03:53:00;-2.20;99.20
9410;DHT22;4744;52.576;13.568;2024-03-08T03:55:27;-2.30;98.40
9410;DHT22;4744;52.576;13.568;2024-03-08T03:57:54;-2.30;98.30
9410;DHT22;4744;52.576;13.568;2024-03-08T04:00:21;-2.40;98.30
9410;DHT22;4744;52.576;13.568;2024-03-08T04:02:48;-2.40;98.90
9410;DHT22;4744;52.576;13.568;2024-03-08T04:05:18;-2.50;99.00
9410;DHT22;4744;52.576;13.568;2024-03-08T04:07:45;-2.50;99.60
9410;DHT22;4744;52.576;13.568;2024-03-08T04:10:12;-2.50;99.90
9410;DHT22;4744;52.576;13.568;2024-03-08T04:12:38;-2.50;99.90
9410;DHT22;4744;52.576;13.568;2024-03-08T04:15:06;-2.40;99.90
9410;DHT22;4744;52.576;13.568;2024-03-08T04:17:33;-2.40;99.90
9410;DHT22;4744;52.576;13.568;2024-03-08T04:20:03;-2.40;99.90
9410;DHT22;4744;52.576;13.568;2024-03-08T04:22:36;-2.40;99.90
9410;DHT22;4744;52.576;13.568;2024-03-08T04:25:03;-2.40;99.90
9410;DHT22;4744;52.576;13.568;2024-03-08T04:27:31;-2.40;99.90
9410;DHT22;4744;52.576;13.568;2024-03-08T04:29:59;-2.40;99.90
9410;DHT22;4744;52.576;13.568;2024-03-08T04:32:26;-2.40;99.90
9410;DHT22;4744;52.576;13.568;2024-03-08T04:34:55;-2.40;99.90
9410;DHT22;4744;52.576;13.568;2024-03-08T04:37:22;-2.40;99.70
9410;DHT22;4744;52.576;13.568;2024-03-08T04:39:50;-2.40;99.30
9410;DHT22;4744;52.576;13.568;2024-03-08T04:42:17;-2.50;99.00
9410;DHT22;4744;52.576;13.568;2024-03-08T04:44:44;-2.50;99.20
9410;DHT22;4744;52.576;13.568;2024-03-08T04:47:12;-2.60;99.30
9410;DHT22;4744;52.576;13.568;2024-03-08T04:49:38;-2.60;99.80
9410;DHT22;4744;52.576;13.568;2024-03-08T04:52:06;-2.70;99.90
9410;DHT22;4744;52.576;13.568;2024-03-08T04:54:33;-2.70;99.90
9410;DHT22;4744;52.576;13.568;2024-03-08T04:57:01;-2.70;99.90
9410;DHT22;4744;52.576;13.568;2024-03-08T04:59:30;-2.60;99.90
9410;DHT22;4744;52.576;13.568;2024-03-08T05:01:57;-2.60;99.90
9410;DHT22;4744;52.576;13.568;2024-03-08T05:04:24;-2.70;99.90
9410;DHT22;4744;52.576;13.568;2024-03-08T05:06:51;-2.70;99.90
9410;DHT22;4744;52.576;13.568;2024-03-08T05:09:19;-2.70;99.90
9410;DHT22;4744;52.576;13.568;2024-03-08T05:11:46;-2.70;99.90
9410;DHT22;4744;52.576;13.568;2024-03-08T05:14:15;-2.70;99.90
9410;DHT22;4744;52.576;13.568;2024-03-08T05:16:45;-2.70;99.90
9410;DHT22;4744;52.576;13.568;2024-03-08T05:19:14;-2.70;99.90
9410;DHT22;4744;52.576;13.568;2024-03-08T05:21:42;-2.70;99.90
9410;DHT22;4744;52.576;13.568;2024-03-08T05:24:09;-2.80;99.90
9410;DHT22;4744;52.576;13.568;2024-03-08T05:26:36;-2.80;99.90
9410;DHT22;4744;52.576;13.568;2024-03-08T05:29:03;-2.80;99.90
9410;DHT22;4744;52.576;13.568;2024-03-08T05:31:38;-2.80;99.90
9410;DHT22;4744;52.576;13.568;2024-03-08T05:34:09;-2.80;99.90
9410;DHT22;4744;52.576;13.568;2024-03-08T05:36:40;-2.80;99.90
9410;DHT22;4744;52.576;13.568;2024-03-08T05:39:07;-2.80;99.90
9410;DHT22;4744;52.576;13.568;2024-03-08T05:41:34;-2.80;99.90
9410;DHT22;4744;52.576;13.568;2024-03-08T05:44:00;-2.70;99.90
9410;DHT22;4744;52.576;13.568;2024-03-08T05:46:28;-2.70;99.90
9410;DHT22;4744;52.576;13.568;2024-03-08T05:48:57;-2.60;99.90
9410;DHT22;4744;52.576;13.568;2024-03-08T05:51:24;-2.60;99.90
9410;DHT22;4744;52.576;13.568;2024-03-08T05:53:52;-2.50;99.90
9410;DHT22;4744;52.576;13.568;2024-03-08T05:56:22;-2.50;99.90
9410;DHT22;4744;52.576;13.568;2024-03-08T05:58:49;-2.50;99.90
9410;DHT22;4744;52.576;13.568;2024-03-08T06:01:16;-2.40;99.90
9410;DHT22;4744;52.576;13.568;2024-03-08T06:03:43;-2.40;99.90
9410;DHT22;4744;52.576;13.568;2024-03-08T06:06:12;-2.30;99.90
9410;DHT22;4744;52.576;13.568;2024-03-08T06:08:39;-2.30;99.90
9410;DHT22;4744;52.576;13.568;2024-03-08T06:11:08;-2.30;99.90
9410;DHT22;4744;52.576;13.568;2024-03-08T06:13:35;-2.30;99.90
9410;DHT22;4744;52.576;13.568;2024-03-08T06:16:02;-2.20;99.90
9410;DHT22;4744;52.576;13.568;2024-03-08T06:18:30;-2.20;99.90
9410;DHT22;4744;52.576;13.568;2024-03-08T06:20:57;-2.10;99.90
9410;DHT22;4744;52.576;13.568;2024-03-08T06:23:25;-2.10;99.90
9410;DHT22;4744;52.576;13.568;2024-03-08T06:25:53;-2.10;99.90
9410;DHT22;4744;52.576;13.568;2024-03-08T06:28:20;-2.00;99.90
9410;DHT22;4744;52.576;13.568;2024-03-08T06:30:48;-2.00;99.90
9410;DHT22;4744;52.576;13.568;2024-03-08T06:33:16;-1.90;99.90
9410;DHT22;4744;52.576;13.568;2024-03-08T06:35:43;-1.80;99.90
9410;DHT22;4744;52.576;13.568;2024-03-08T06:38:10;-1.70;99.90
9410;DHT22;4744;52.576;13.568;2024-03-08T06:40:39;-1.60;99.90
9410;DHT22;4744;52.576;13.568;2024-03-08T06:43:06;-1.50;99.90
9410;DHT22;4744;52.576;13.568;2024-03-08T06:45:33;-1.50;99.90
9410;DHT22;4744;52.576;13.568;2024-03-08T06:48:03;-1.50;99.90
9410;DHT22;4744;52.576;13.568;2024-03-08T06:50:35;-1.40;99.90
9410;DHT22;4744;52.576;13.568;2024-03-08T06:53:02;-1.30;99.90
9410;DHT22;4744;52.576;13.568;2024-03-08T06:55:29;-1.30;99.90
9410;DHT22;4744;52.576;13.568;2024-03-08T06:57:57;-1.10;99.90
9410;DHT22;4744;52.576;13.568;2024-03-08T07:00:24;-1.00;99.90
9410;DHT22;4744;52.576;13.568;2024-03-08T07:02:54;-0.90;99.90
9410;DHT22;4744;52.576;13.568;2024-03-08T07:05:21;-0.80;99.90
9410;DHT22;4744;52.576;13.568;2024-03-08T07:07:48;-0.70;99.90
9410;DHT22;4744;52.576;13.568;2024-03-08T07:10:16;-0.60;99.90
9410;DHT22;4744;52.576;13.568;2024-03-08T07:12:44;-0.50;99.90
9410;DHT22;4744;52.576;13.568;2024-03-08T07:15:13;-0.40;99.30
9410;DHT22;4744;52.576;13.568;2024-03-08T07:17:40;-0.30;98.40
9410;DHT22;4744;52.576;13.568;2024-03-08T07:20:10;-0.20;98.20
9410;DHT22;4744;52.576;13.568;2024-03-08T07:22:38;-0.10;98.00
9410;DHT22;4744;52.576;13.568;2024-03-08T07:25:05;0.00;97.70
9410;DHT22;4744;52.576;13.568;2024-03-08T07:27:46;0.10;97.30
9410;DHT22;4744;52.576;13.568;2024-03-08T07:30:14;0.40;96.40
9410;DHT22;4744;52.576;13.568;2024-03-08T07:33:03;0.60;95.40
9410;DHT22;4744;52.576;13.568;2024-03-08T07:35:30;0.80;94.20
9410;DHT22;4744;52.576;13.568;2024-03-08T07:37:57;1.00;93.50
9410;DHT22;4744;52.576;13.568;2024-03-08T07:40:25;1.00;92.60
9410;DHT22;4744;52.576;13.568;2024-03-08T07:42:52;1.00;91.90
9410;DHT22;4744;52.576;13.568;2024-03-08T07:45:21;0.90;90.90
9410;DHT22;4744;52.576;13.568;2024-03-08T07:47:48;1.00;91.70
9410;DHT22;4744;52.576;13.568;2024-03-08T07:50:16;1.00;90.50
9410;DHT22;4744;52.576;13.568;2024-03-08T07:52:45;1.00;90.70
9410;DHT22;4744;52.576;13.568;2024-03-08T07:55:12;1.00;90.00
9410;DHT22;4744;52.576;13.568;2024-03-08T07:57:39;1.00;89.70
9410;DHT22;4744;52.576;13.568;2024-03-08T08:00:06;1.10;88.80
9410;DHT22;4744;52.576;13.568;2024-03-08T08:02:35;1.10;88.20
9410;DHT22;4744;52.576;13.568;2024-03-08T08:05:05;1.10;88.80
9410;DHT22;4744;52.576;13.568;2024-03-08T08:07:32;1.10;89.30
9410;DHT22;4744;52.576;13.568;2024-03-08T08:09:59;1.20;89.80
9410;DHT22;4744;52.576;13.568;2024-03-08T08:12:26;1.40;89.90
9410;DHT22;4744;52.576;13.568;2024-03-08T08:14:54;1.60;88.00
9410;DHT22;4744;52.576;13.568;2024-03-08T08:17:22;1.80;86.90
9410;DHT22;4744;52.576;13.568;2024-03-08T08:19:50;1.90;86.80
9410;DHT22;4744;52.576;13.568;2024-03-08T08:22:17;2.00;85.30
9410;DHT22;4744;52.576;13.568;2024-03-08T08:24:45;2.00;85.40
9410;DHT22;4744;52.576;13.568;2024-03-08T08:27:11;2.10;85.90
9410;DHT22;4744;52.576;13.568;2024-03-08T08:29:40;2.20;86.00
9410;DHT22;4744;52.576;13.568;2024-03-08T08:32:07;2.40;85.80
9410;DHT22;4744;52.576;13.568;2024-03-08T08:34:34;2.50;84.90
9410;DHT22;4744;52.576;13.568;2024-03-08T08:37:02;2.60;83.20
9410;DHT22;4744;52.576;13.568;2024-03-08T08:39:29;2.60;82.30
9410;DHT22;4744;52.576;13.568;2024-03-08T08:41:55;2.70;82.60
9410;DHT22;4744;52.576;13.568;2024-03-08T08:44:23;2.90;81.70
9410;DHT22;4744;52.576;13.568;2024-03-08T08:46:51;3.00;80.40
9410;DHT22;4744;52.576;13.568;2024-03-08T08:49:18;3.10;80.40
9410;DHT22;4744;52.576;13.568;2024-03-08T08:51:49;3.20;81.10
9410;DHT22;4744;52.576;13.568;2024-03-08T08:54:17;3.50;78.70
9410;DHT22;4744;52.576;13.568;2024-03-08T08:56:46;3.60;77.20
9410;DHT22;4744;52.576;13.568;2024-03-08T08:59:13;3.70;77.20
9410;DHT22;4744;52.576;13.568;2024-03-08T09:01:41;3.90;75.90
9410;DHT22;4744;52.576;13.568;2024-03-08T09:04:08;3.90;76.50
9410;DHT22;4744;52.576;13.568;2024-03-08T09:06:38;4.10;76.50
9410;DHT22;4744;52.576;13.568;2024-03-08T09:09:06;4.30;73.10
9410;DHT22;4744;52.576;13.568;2024-03-08T09:11:37;4.30;72.00
9410;DHT22;4744;52.576;13.568;2024-03-08T09:14:07;4.30;72.40
9410;DHT22;4744;52.576;13.568;2024-03-08T09:16:34;4.40;72.40
9410;DHT22;4744;52.576;13.568;2024-03-08T09:19:02;4.40;72.50
9410;DHT22;4744;52.576;13.568;2024-03-08T09:21:29;4.70;71.60
9410;DHT22;4744;52.576;13.568;2024-03-08T09:23:57;4.90;70.40
9410;DHT22;4744;52.576;13.568;2024-03-08T09:26:24;5.00;69.80
9410;DHT22;4744;52.576;13.568;2024-03-08T09:28:53;5.30;68.40
9410;DHT22;4744;52.576;13.568;2024-03-08T09:31:21;5.50;68.80
9410;DHT22;4744;52.576;13.568;2024-03-08T09:33:48;5.80;68.50
9410;DHT22;4744;52.576;13.568;2024-03-08T09:36:16;6.10;65.90
9410;DHT22;4744;52.576;13.568;2024-03-08T09:38:43;6.20;64.80
9410;DHT22;4744;52.576;13.568;2024-03-08T09:41:10;6.20;64.70
9410;DHT22;4744;52.576;13.568;2024-03-08T09:43:38;6.30;64.80
9410;DHT22;4744;52.576;13.568;2024-03-08T09:46:07;5.90;63.70
9410;DHT22;4744;52.576;13.568;2024-03-08T09:48:36;5.60;63.60
9410;DHT22;4744;52.576;13.568;2024-03-08T09:51:05;5.50;65.20
9410;DHT22;4744;52.576;13.568;2024-03-08T09:53:32;5.50;64.90
9410;DHT22;4744;52.576;13.568;2024-03-08T09:56:00;5.70;64.40
9410;DHT22;4744;52.576;13.568;2024-03-08T09:58:29;5.70;63.00
9410;DHT22;4744;52.576;13.568;2024-03-08T10:01:14;5.80;63.40
9410;DHT22;4744;52.576;13.568;2024-03-08T10:03:41;5.90;62.80
9410;DHT22;4744;52.576;13.568;2024-03-08T10:06:08;5.80;62.80
9410;DHT22;4744;52.576;13.568;2024-03-08T10:08:35;5.90;62.70
9410;DHT22;4744;52.576;13.568;2024-03-08T10:11:02;6.10;62.70
9410;DHT22;4744;52.576;13.568;2024-03-08T10:13:29;6.10;61.20
9410;DHT22;4744;52.576;13.568;2024-03-08T10:15:57;6.20;61.50
9410;DHT22;4744;52.576;13.568;2024-03-08T10:18:26;6.40;61.20
9410;DHT22;4744;52.576;13.568;2024-03-08T10:21:03;6.40;62.10
9410;DHT22;4744;52.576;13.568;2024-03-08T10:23:31;6.60;60.50
9410;DHT22;4744;52.576;13.568;2024-03-08T10:26:09;6.40;60.90
9410;DHT22;4744;52.576;13.568;2024-03-08T10:28:36;6.50;60.00
9410;DHT22;4744;52.576;13.568;2024-03-08T10:31:03;6.70;61.10
9410;DHT22;4744;52.576;13.568;2024-03-08T10:33:32;6.70;59.90
9410;DHT22;4744;52.576;13.568;2024-03-08T10:35:59;6.80;59.80
9410;DHT22;4744;52.576;13.568;2024-03-08T10:38:29;6.90;59.50
9410;DHT22;4744;52.576;13.568;2024-03-08T10:40:59;6.90;58.80
9410;DHT22;4744;52.576;13.568;2024-03-08T10:43:28;7.20;59.30
9410;DHT22;4744;52.576;13.568;2024-03-08T10:46:12;7.10;58.20
9410;DHT22;4744;52.576;13.568;2024-03-08T10:48:45;7.40;58.50
9410;DHT22;4744;52.576;13.568;2024-03-08T10:51:14;7.60;58.20
9410;DHT22;4744;52.576;13.568;2024-03-08T10:53:42;7.60;55.60
9410;DHT22;4744;52.576;13.568;2024-03-08T10:56:11;7.50;56.10
9410;DHT22;4744;52.576;13.568;2024-03-08T10:58:41;7.50;55.90
9410;DHT22;4744;52.576;13.568;2024-03-08T11:01:10;7.50;55.70
9410;DHT22;4744;52.576;13.568;2024-03-08T11:03:51;7.80;55.80
9410;DHT22;4744;52.576;13.568;2024-03-08T11:06:22;8.00;54.10
9410;DHT22;4744;52.576;13.568;2024-03-08T11:08:49;7.80;54.00
9410;DHT22;4744;52.576;13.568;2024-03-08T11:11:30;7.80;55.90
9410;DHT22;4744;52.576;13.568;2024-03-08T11:13:57;7.80;56.10
9410;DHT22;4744;52.576;13.568;2024-03-08T11:16:38;8.00;56.60
9410;DHT22;4744;52.576;13.568;2024-03-08T11:19:24;8.30;55.70
9410;DHT22;4744;52.576;13.568;2024-03-08T11:22:01;8.50;54.60
9410;DHT22;4744;52.576;13.568;2024-03-08T11:24:28;8.60;53.40
9410;DHT22;4744;52.576;13.568;2024-03-08T11:27:04;8.50;52.70
9410;DHT22;4744;52.576;13.568;2024-03-08T11:29:38;8.30;52.90
9410;DHT22;4744;52.576;13.568;2024-03-08T11:32:10;8.00;54.40
9410;DHT22;4744;52.576;13.568;2024-03-08T11:34:40;8.20;53.70
9410;DHT22;4744;52.576;13.568;2024-03-08T11:37:13;8.30;53.80
9410;DHT22;4744;52.576;13.568;2024-03-08T11:39:45;8.10;52.70
9410;DHT22;4744;52.576;13.568;2024-03-08T11:42:12;8.10;54.00
9410;DHT22;4744;52.576;13.568;2024-03-08T11:44:39;8.30;51.90
9410;DHT22;4744;52.576;13.568;2024-03-08T11:47:10;8.10;52.80
9410;DHT22;4744;52.576;13.568;2024-03-08T11:49:38;8.00;53.60
9410;DHT22;4744;52.576;13.568;2024-03-08T11:52:11;8.00;53.70
9410;DHT22;4744;52.576;13.568;2024-03-08T11:54:39;8.00;53.50
9410;DHT22;4744;52.576;13.568;2024-03-08T11:57:06;8.00;54.00
9410;DHT22;4744;52.576;13.568;2024-03-08T11:59:35;8.00;54.40
9410;DHT22;4744;52.576;13.568;2024-03-08T12:02:03;8.00;54.00
9410;DHT22;4744;52.576;13.568;2024-03-08T12:04:31;8.00;53.70
9410;DHT22;4744;52.576;13.568;2024-03-08T12:07:01;8.00;52.30
9410;DHT22;4744;52.576;13.568;2024-03-08T12:09:34;7.90;52.80
9410;DHT22;4744;52.576;13.568;2024-03-08T12:12:02;7.80;52.20
9410;DHT22;4744;52.576;13.568;2024-03-08T12:14:30;7.70;51.60
9410;DHT22;4744;52.576;13.568;2024-03-08T12:16:57;7.60;52.40
9410;DHT22;4744;52.576;13.568;2024-03-08T12:19:26;7.60;52.80
9410;DHT22;4744;52.576;13.568;2024-03-08T12:21:54;7.60;52.90
9410;DHT22;4744;52.576;13.568;2024-03-08T12:24:23;7.70;53.00
9410;DHT22;4744;52.576;13.568;2024-03-08T12:26:50;7.80;52.50
9410;DHT22;4744;52.576;13.568;2024-03-08T12:29:19;7.80;52.50
9410;DHT22;4744;52.576;13.568;2024-03-08T12:31:48;8.00;54.00
9410;DHT22;4744;52.576;13.568;2024-03-08T12:34:17;8.10;52.70
9410;DHT22;4744;52.576;13.568;2024-03-08T12:36:48;8.10;52.10
9410;DHT22;4744;52.576;13.568;2024-03-08T12:39:16;8.30;52.80
9410;DHT22;4744;52.576;13.568;2024-03-08T12:41:49;8.20;51.70
9410;DHT22;4744;52.576;13.568;2024-03-08T12:44:17;8.10;52.40
9410;DHT22;4744;52.576;13.568;2024-03-08T12:46:44;8.20;51.60
9410;DHT22;4744;52.576;13.568;2024-03-08T12:49:11;8.20;52.90
9410;DHT22;4744;52.576;13.568;2024-03-08T12:51:39;8.30;53.30
9410;DHT22;4744;52.576;13.568;2024-03-08T12:54:07;8.20;52.10
9410;DHT22;4744;52.576;13.568;2024-03-08T12:56:35;8.20;53.10
9410;DHT22;4744;52.576;13.568;2024-03-08T12:59:05;8.00;53.30
9410;DHT22;4744;52.576;13.568;2024-03-08T13:01:32;8.00;52.50
9410;DHT22;4744;52.576;13.568;2024-03-08T13:03:59;8.00;52.70
9410;DHT22;4744;52.576;13.568;2024-03-08T13:06:27;8.20;53.60
9410;DHT22;4744;52.576;13.568;2024-03-08T13:08:54;8.10;53.10
9410;DHT22;4744;52.576;13.568;2024-03-08T13:11:22;8.20;53.60
9410;DHT22;4744;52.576;13.568;2024-03-08T13:13:49;8.30;53.00
9410;DHT22;4744;52.576;13.568;2024-03-08T13:16:17;8.40;52.20
9410;DHT22;4744;52.576;13.568;2024-03-08T13:18:46;8.30;52.60
9410;DHT22;4744;52.576;13.568;2024-03-08T13:21:14;8.40;53.00
9410;DHT22;4744;52.576;13.568;2024-03-08T13:23:45;8.40;53.40
9410;DHT22;4744;52.576;13.568;2024-03-08T13:26:16;8.50;53.10
9410;DHT22;4744;52.576;13.568;2024-03-08T13:28:43;8.40;53.10
9410;DHT22;4744;52.576;13.568;2024-03-08T13:31:10;8.20;53.60
9410;DHT22;4744;52.576;13.568;2024-03-08T13:33:38;8.30;53.70
9410;DHT22;4744;52.576;13.568;2024-03-08T13:36:07;8.30;53.40
9410;DHT22;4744;52.576;13.568;2024-03-08T13:38:41;8.40;54.00
9410;DHT22;4744;52.576;13.568;2024-03-08T13:41:09;8.30;53.30
9410;DHT22;4744;52.576;13.568;2024-03-08T13:43:36;8.30;53.70
9410;DHT22;4744;52.576;13.568;2024-03-08T13:46:03;8.40;53.40
9410;DHT22;4744;52.576;13.568;2024-03-08T13:48:32;8.30;54.00
9410;DHT22;4744;52.576;13.568;2024-03-08T13:51:00;8.30;53.70
9410;DHT22;4744;52.576;13.568;2024-03-08T13:53:27;8.30;53.80
9410;DHT22;4744;52.576;13.568;2024-03-08T13:55:55;8.30;53.20
9410;DHT22;4744;52.576;13.568;2024-03-08T13:58:22;8.20;53.10
9410;DHT22;4744;52.576;13.568;2024-03-08T14:00:49;8.20;54.10
9410;DHT22;4744;52.576;13.568;2024-03-08T14:03:17;8.20;53.50
9410;DHT22;4744;52.576;13.568;2024-03-08T14:05:44;8.20;53.30
9410;DHT22;4744;52.576;13.568;2024-03-08T14:08:13;8.20;53.30
9410;DHT22;4744;52.576;13.568;2024-03-08T14:10:41;8.20;53.80
9410;DHT22;4744;52.576;13.568;2024-03-08T14:13:09;8.20;53.00
9410;DHT22;4744;52.576;13.568;2024-03-08T14:15:37;8.30;52.80
9410;DHT22;4744;52.576;13.568;2024-03-08T14:18:07;8.30;52.80
9410;DHT22;4744;52.576;13.568;2024-03-08T14:20:34;8.40;52.10
9410;DHT22;4744;52.576;13.568;2024-03-08T14:23:01;8.30;51.90
9410;DHT22;4744;52.576;13.568;2024-03-08T14:25:30;8.30;52.20
9410;DHT22;4744;52.576;13.568;2024-03-08T14:27:56;8.30;51.90
9410;DHT22;4744;52.576;13.568;2024-03-08T14:30:27;8.20;51.00
9410;DHT22;4744;52.576;13.568;2024-03-08T14:33:04;8.20;50.80
9410;DHT22;4744;52.576;13.568;2024-03-08T14:35:34;8.20;51.20
9410;DHT22;4744;52.576;13.568;2024-03-08T14:38:01;8.20;51.60
9410;DHT22;4744;52.576;13.568;2024-03-08T14:40:30;8.20;51.30
9410;DHT22;4744;52.576;13.568;2024-03-08T14:42:57;8.20;52.30
9410;DHT22;4744;52.576;13.568;2024-03-08T14:45:24;8.20;52.70
9410;DHT22;4744;52.576;13.568;2024-03-08T14:47:52;8.20;52.10
9410;DHT22;4744;52.576;13.568;2024-03-08T14:50:21;8.20;52.70
9410;DHT22;4744;52.576;13.568;2024-03-08T14:52:49;8.10;53.30
9410;DHT22;4744;52.576;13.568;2024-03-08T14:55:17;8.10;53.70
9410;DHT22;4744;52.576;13.568;2024-03-08T14:57:46;8.10;53.00
9410;DHT22;4744;52.576;13.568;2024-03-08T15:00:17;8.10;52.60
9410;DHT22;4744;52.576;13.568;2024-03-08T15:02:52;8.10;52.30
9410;DHT22;4744;52.576;13.568;2024-03-08T15:05:19;8.00;52.50
9410;DHT22;4744;52.576;13.568;2024-03-08T15:07:47;8.00;52.50
9410;DHT22;4744;52.576;13.568;2024-03-08T15:10:15;8.00;53.20
9410;DHT22;4744;52.576;13.568;2024-03-08T15:12:47;8.00;53.10
9410;DHT22;4744;52.576;13.568;2024-03-08T15:15:14;8.00;53.20
9410;DHT22;4744;52.576;13.568;2024-03-08T15:17:43;8.00;52.80
9410;DHT22;4744;52.576;13.568;2024-03-08T15:20:12;8.00;53.20
9410;DHT22;4744;52.576;13.568;2024-03-08T15:22:42;7.90;53.70
9410;DHT22;4744;52.576;13.568;2024-03-08T15:25:10;7.80;53.00
9410;DHT22;4744;52.576;13.568;2024-03-08T15:27:43;7.80;52.90
9410;DHT22;4744;52.576;13.568;2024-03-08T15:30:11;7.80;53.40
9410;DHT22;4744;52.576;13.568;2024-03-08T15:32:40;7.80;53.70
9410;DHT22;4744;52.576;13.568;2024-03-08T15:35:10;7.80;53.90
9410;DHT22;4744;52.576;13.568;2024-03-08T15:37:40;7.80;53.40
9410;DHT22;4744;52.576;13.568;2024-03-08T15:40:08;7.80;52.60
9410;DHT22;4744;52.576;13.568;2024-03-08T15:42:37;7.70;53.50
9410;DHT22;4744;52.576;13.568;2024-03-08T15:45:06;7.60;52.90
9410;DHT22;4744;52.576;13.568;2024-03-08T15:47:35;7.60;52.20
9410;DHT22;4744;52.576;13.568;2024-03-08T15:50:02;7.60;52.00
9410;DHT22;4744;52.576;13.568;2024-03-08T15:52:30;7.60;52.10
9410;DHT22;4744;52.576;13.568;2024-03-08T15:54:57;7.60;52.50
9410;DHT22;4744;52.576;13.568;2024-03-08T15:57:24;7.60;53.00
9410;DHT22;4744;52.576;13.568;2024-03-08T15:59:50;7.50;53.40
9410;DHT22;4744;52.576;13.568;2024-03-08T16:02:17;7.50;53.80